createdAt,value
2023-05-11T00:03:01.987Z,12.45
2023-05-11T00:09:05.762Z,11.18
2023-05-11T00:15:09.810Z,9.05
2023-05-11T00:21:14.698Z,8.80
2023-05-11T00:27:18.278Z,9.20
2023-05-11T00:33:21.659Z,7.85
2023-05-11T00:39:26.678Z,9.23
2023-05-11T00:45:30.193Z,10.20
2023-05-11T00:51:33.843Z,11.95
2023-05-11T00:57:38.927Z,10.55
2023-05-11T01:03:42.585Z,9.90
2023-05-11T01:09:49.723Z,11.25
2023-05-11T01:15:56.374Z,11.82
2023-05-11T01:22:01.013Z,12.60
2023-05-11T01:28:23.562Z,9.48
2023-05-11T01:34:30.685Z,8.85
2023-05-11T01:40:34.538Z,10.95
2023-05-11T01:46:38.738Z,12.30
2023-05-11T01:52:44.152Z,12.48
2023-05-11T01:58:48.293Z,12.50
2023-05-11T02:04:52.076Z,16.02
2023-05-11T02:10:58.729Z,11.38
2023-05-11T02:17:02.950Z,12.15
2023-05-11T02:23:06.700Z,10.23
2023-05-11T02:29:11.988Z,12.32
2023-05-11T02:35:28.035Z,9.52
2023-05-11T02:41:32.058Z,10.27
2023-05-11T02:47:40.958Z,12.20
2023-05-11T02:53:45.499Z,10.63
2023-05-11T02:59:49.733Z,11.30
2023-05-11T03:05:54.508Z,8.45
2023-05-11T03:11:58.551Z,15.82
2023-05-11T03:18:02.547Z,15.15
2023-05-11T03:24:08.397Z,13.27
2023-05-11T03:30:13.044Z,11.45
2023-05-11T03:36:16.882Z,12.15
2023-05-11T03:42:22.760Z,10.23
2023-05-11T03:48:26.145Z,11.45
2023-05-11T03:54:29.632Z,11.45
2023-05-11T04:00:34.616Z,10.40
2023-05-11T04:06:37.968Z,14.43
2023-05-11T04:12:41.396Z,15.18
2023-05-11T04:18:46.453Z,10.00
2023-05-11T04:24:49.868Z,13.90
2023-05-11T04:30:56.560Z,15.15
2023-05-11T04:37:07.157Z,12.05
2023-05-11T04:43:10.564Z,16.15
2023-05-11T04:49:14.111Z,19.48
2023-05-11T04:55:18.990Z,21.02
2023-05-11T05:01:22.741Z,20.23
2023-05-11T05:07:26.399Z,20.63
2023-05-11T05:13:31.182Z,22.10
2023-05-11T05:19:34.591Z,24.38
2023-05-11T05:25:38.209Z,25.17
2023-05-11T05:31:43.140Z,27.13
2023-05-11T05:37:46.786Z,31.65
2023-05-11T05:43:52.282Z,31.10
2023-05-11T05:49:57.071Z,33.65
2023-05-11T05:56:00.549Z,34.08
2023-05-11T06:02:03.956Z,31.30
2023-05-11T06:08:11.139Z,36.10
2023-05-11T06:14:14.971Z,38.65
2023-05-11T06:20:18.802Z,37.20
2023-05-11T06:26:25.377Z,35.35
2023-05-11T06:32:29.480Z,32.15
2023-05-11T06:38:32.933Z,38.92
2023-05-11T06:44:38.595Z,35.75
2023-05-11T06:50:42.083Z,38.20
2023-05-11T06:56:45.719Z,29.98
2023-05-11T07:02:50.559Z,30.35
2023-05-11T07:08:54.138Z,30.65
2023-05-11T07:14:57.698Z,33.78
2023-05-11T07:21:02.467Z,32.40
2023-05-11T07:27:05.957Z,28.15
2023-05-11T07:33:09.447Z,31.73
2023-05-11T07:39:16.381Z,27.83
2023-05-11T07:45:20.021Z,33.80
2023-05-11T07:51:23.787Z,27.58
2023-05-11T07:57:28.549Z,27.13
2023-05-11T08:03:32.010Z,22.13
2023-05-11T08:09:35.721Z,27.02
2023-05-11T08:15:40.783Z,24.50
2023-05-11T08:21:46.364Z,17.40
2023-05-11T08:27:49.786Z,18.20
2023-05-11T08:33:57.665Z,16.30
2023-05-11T08:40:01.746Z,22.35
2023-05-11T08:46:07.520Z,17.88
2023-05-11T08:52:12.721Z,20.23
2023-05-11T08:58:19.606Z,16.58
2023-05-11T09:04:24.507Z,18.50
2023-05-11T09:10:29.383Z,15.57
2023-05-11T09:16:37.279Z,13.52
2023-05-11T09:22:43.393Z,9.50
2023-05-11T09:29:02.498Z,9.38
2023-05-11T09:35:20.852Z,10.20
2023-05-11T09:41:24.829Z,9.18
2023-05-11T09:47:30.535Z,9.10
2023-05-11T09:53:38.772Z,7.85
2023-05-11T09:59:43.221Z,7.22
2023-05-11T10:05:59.193Z,6.13
2023-05-11T10:12:02.762Z,7.88
2023-05-11T10:18:07.454Z,7.22
2023-05-11T10:24:13.876Z,6.32
2023-05-11T10:30:18.217Z,8.60
2023-05-11T10:36:22.770Z,8.93
2023-05-11T10:42:36.365Z,7.55
2023-05-11T10:48:51.003Z,7.47
2023-05-11T10:55:00.848Z,8.55
2023-05-11T11:01:22.840Z,6.88
2023-05-11T11:07:27.736Z,6.57
2023-05-11T11:13:31.135Z,6.38
2023-05-11T11:19:38.491Z,5.53
2023-05-11T11:25:59.576Z,7.18
2023-05-11T11:32:17.818Z,8.45
2023-05-11T11:38:22.818Z,7.65
2023-05-11T11:44:26.263Z,7.00
2023-05-11T11:50:30.230Z,5.32
2023-05-11T11:56:54.714Z,5.50
2023-05-11T12:02:59.798Z,4.70
2023-05-11T12:09:04.966Z,3.97
2023-05-11T12:15:10.059Z,3.63
2023-05-11T12:21:22.486Z,10.43
2023-05-11T12:27:26.125Z,8.20
2023-05-11T12:33:29.603Z,6.93
2023-05-11T12:39:36.074Z,7.10
2023-05-11T12:45:39.547Z,6.35
2023-05-11T12:52:01.058Z,8.05
2023-05-11T12:58:13.113Z,8.98
2023-05-11T13:04:17.029Z,8.30
2023-05-11T13:10:26.825Z,7.70
2023-05-11T13:16:33.150Z,7.53
2023-05-11T13:22:36.615Z,8.80
2023-05-11T13:28:40.656Z,8.30
2023-05-11T13:34:46.734Z,9.18
2023-05-11T13:40:50.167Z,5.63
2023-05-11T13:46:53.974Z,7.35
2023-05-11T13:52:58.817Z,7.55
2023-05-11T13:59:02.304Z,5.03
2023-05-11T14:05:09.020Z,5.88
2023-05-11T14:11:14.033Z,7.85
2023-05-11T14:17:17.968Z,7.90
2023-05-11T14:23:21.693Z,9.40
2023-05-11T14:29:26.813Z,5.60
2023-05-11T14:35:30.524Z,6.10
2023-05-11T14:41:33.952Z,7.88
2023-05-11T14:47:38.951Z,5.97
2023-05-11T14:53:42.551Z,7.75
2023-05-11T14:59:58.226Z,10.30
2023-05-11T15:06:04.149Z,6.10
2023-05-11T15:12:07.769Z,7.10
2023-05-11T15:18:14.208Z,6.55
2023-05-11T15:24:19.028Z,6.40
2023-05-11T15:30:22.789Z,7.32
2023-05-11T15:36:29.671Z,8.63
2023-05-11T15:42:34.769Z,8.15
2023-05-11T15:48:38.193Z,9.40
2023-05-11T15:54:41.669Z,6.95
2023-05-11T16:00:46.667Z,6.70
2023-05-11T16:06:50.111Z,7.00
2023-05-11T16:12:53.537Z,8.05
2023-05-11T16:19:00.325Z,6.80
2023-05-11T16:25:03.811Z,7.30
2023-05-11T16:31:07.839Z,6.78
2023-05-11T16:37:12.644Z,5.35
2023-05-11T16:43:16.918Z,4.20
2023-05-11T16:49:20.609Z,6.25
2023-05-11T16:55:25.568Z,6.35
2023-05-11T17:01:30.139Z,6.38
2023-05-11T17:07:33.738Z,6.47
2023-05-11T17:13:38.901Z,5.53
2023-05-11T17:19:42.340Z,5.05
2023-05-11T17:25:45.830Z,6.75
2023-05-11T17:31:51.715Z,5.88
2023-05-11T17:37:55.909Z,5.80
2023-05-11T17:43:59.474Z,7.20
2023-05-11T17:50:04.545Z,9.20
2023-05-11T17:56:11.976Z,6.03
2023-05-11T18:02:15.483Z,7.22
2023-05-11T18:08:20.354Z,7.78
2023-05-11T18:14:23.797Z,8.15
2023-05-11T18:20:27.654Z,8.35
2023-05-11T18:26:32.554Z,11.48
2023-05-11T18:32:36.102Z,10.05
2023-05-11T18:38:39.892Z,8.48
2023-05-11T18:44:44.717Z,9.82
2023-05-11T18:50:55.067Z,10.20
2023-05-11T18:56:58.764Z,8.23
2023-05-11T19:03:04.159Z,11.75
2023-05-11T19:09:07.646Z,8.93
2023-05-11T19:15:11.592Z,8.38
2023-05-11T19:21:17.172Z,10.43
2023-05-11T19:27:20.595Z,8.85
2023-05-11T19:33:24.143Z,8.63
2023-05-11T19:39:29.676Z,10.85
2023-05-11T19:45:33.295Z,9.65
2023-05-11T19:51:36.828Z,8.60
2023-05-11T19:57:41.657Z,10.52
2023-05-11T20:03:45.178Z,11.70
2023-05-11T20:09:48.803Z,11.60
2023-05-11T20:15:55.457Z,13.95
2023-05-11T20:21:58.909Z,10.90
2023-05-11T20:28:02.380Z,13.68
2023-05-11T20:34:07.468Z,11.65
2023-05-11T20:40:12.165Z,10.30
2023-05-11T20:46:16.424Z,12.93
2023-05-11T20:52:21.376Z,10.55
2023-05-11T20:58:24.848Z,13.70
2023-05-11T21:04:29.873Z,14.57
2023-05-11T21:10:35.075Z,13.07
2023-05-11T21:16:38.644Z,12.65
2023-05-11T21:22:42.152Z,12.90
2023-05-11T21:28:47.028Z,13.35
2023-05-11T21:34:50.680Z,14.80
2023-05-11T21:40:54.760Z,14.85
2023-05-11T21:46:59.620Z,13.10
2023-05-11T21:53:03.389Z,12.13
2023-05-11T21:59:06.848Z,13.65
2023-05-11T22:05:12.330Z,12.82
2023-05-11T22:11:15.866Z,11.68
2023-05-11T22:17:19.347Z,12.27
2023-05-11T22:23:24.201Z,16.40
2023-05-11T22:29:27.662Z,14.23
2023-05-11T22:35:31.863Z,14.50
2023-05-11T22:41:36.685Z,15.82
2023-05-11T22:47:40.466Z,17.85
2023-05-11T22:53:44.638Z,16.98
2023-05-11T22:59:49.654Z,16.52
2023-05-11T23:05:53.157Z,17.23
2023-05-11T23:11:56.648Z,17.88
2023-05-11T23:18:01.489Z,18.10
2023-05-11T23:24:05.792Z,19.58
2023-05-11T23:30:09.688Z,18.67
2023-05-11T23:36:14.570Z,20.48
2023-05-11T23:42:18.023Z,19.85
2023-05-11T23:48:21.445Z,18.10
2023-05-11T23:54:26.283Z,20.55
